createdAt,value
2022-12-28T00:01:54.764Z,13.30
2022-12-28T00:04:22.945Z,14.67
2022-12-28T00:06:52.511Z,17.90
2022-12-28T00:09:20.617Z,20.00
2022-12-28T00:11:48.753Z,18.83
2022-12-28T00:14:16.938Z,15.37
2022-12-28T00:16:46.580Z,17.23
2022-12-28T00:19:16.796Z,21.20
2022-12-28T00:21:46.347Z,21.27
2022-12-28T00:24:19.555Z,20.77
2022-12-28T00:26:47.625Z,19.50
2022-12-28T00:29:15.912Z,22.93
2022-12-28T00:31:45.685Z,23.80
2022-12-28T00:34:15.829Z,18.73
2022-12-28T00:37:10.534Z,15.40
2022-12-28T00:39:32.111Z,18.10
2022-12-28T00:42:00.216Z,17.07
2022-12-28T00:44:28.495Z,16.93
2022-12-28T00:46:56.546Z,23.17
2022-12-28T00:49:26.058Z,18.73
2022-12-28T00:51:54.147Z,16.60
2022-12-28T00:54:22.198Z,15.63
2022-12-28T00:56:50.243Z,20.77
2022-12-28T00:59:18.506Z,19.30
2022-12-28T01:01:46.647Z,17.07
2022-12-28T01:04:15.378Z,19.20
2022-12-28T01:06:44.835Z,20.63
2022-12-28T01:09:12.941Z,21.87
2022-12-28T01:11:41.102Z,14.80
2022-12-28T01:14:09.313Z,23.93
2022-12-28T01:16:38.371Z,21.27
2022-12-28T01:19:08.279Z,17.80
2022-12-28T01:21:37.422Z,18.47
2022-12-28T01:24:08.744Z,17.00
2022-12-28T01:26:37.356Z,17.57
2022-12-28T01:29:05.622Z,17.20
2022-12-28T01:31:34.100Z,16.07
2022-12-28T01:34:02.673Z,16.43
2022-12-28T01:36:32.609Z,19.13
2022-12-28T01:39:02.836Z,19.00
2022-12-28T01:41:33.794Z,16.63
2022-12-28T01:44:42.049Z,19.20
2022-12-28T01:47:14.722Z,16.83
2022-12-28T01:49:47.469Z,20.70
2022-12-28T01:52:21.208Z,16.93
2022-12-28T01:54:52.133Z,16.80
2022-12-28T01:57:26.860Z,24.27
2022-12-28T02:00:01.095Z,25.07
2022-12-28T02:02:30.740Z,21.53
2022-12-28T02:05:00.113Z,21.20
2022-12-28T02:07:37.597Z,23.97
2022-12-28T02:10:43.280Z,23.10
2022-12-28T02:12:58.024Z,19.07
2022-12-28T02:15:26.182Z,23.17
2022-12-28T02:17:54.210Z,23.63
2022-12-28T02:20:24.846Z,21.50
2022-12-28T02:23:12.903Z,23.03
2022-12-28T02:26:09.895Z,30.37
2022-12-28T02:29:27.783Z,25.30
2022-12-28T02:32:04.002Z,27.07
2022-12-28T02:34:38.223Z,31.70
2022-12-28T02:37:13.577Z,26.87
2022-12-28T02:39:45.458Z,26.57
2022-12-28T02:42:14.943Z,27.13
2022-12-28T02:45:01.728Z,19.63
2022-12-28T02:47:47.095Z,22.80
2022-12-28T02:50:17.186Z,24.73
2022-12-28T02:53:09.203Z,28.67
2022-12-28T02:56:09.549Z,24.27
2022-12-28T02:59:05.258Z,26.50
2022-12-28T03:01:56.392Z,25.53
2022-12-28T03:04:30.471Z,20.60
2022-12-28T03:07:25.094Z,25.33
2022-12-28T03:09:59.443Z,25.70
2022-12-28T03:12:33.444Z,23.37
2022-12-28T03:15:08.134Z,21.13
2022-12-28T03:17:58.893Z,23.27
2022-12-28T03:20:48.569Z,23.00
2022-12-28T03:23:37.196Z,22.87
2022-12-28T03:26:25.938Z,27.77
2022-12-28T03:29:13.497Z,26.07
2022-12-28T03:31:42.335Z,19.77
2022-12-28T03:34:12.073Z,23.10
2022-12-28T03:36:49.176Z,21.17
2022-12-28T03:39:26.022Z,22.40
2022-12-28T03:42:15.472Z,20.67
2022-12-28T03:44:49.007Z,24.63
2022-12-28T03:47:18.068Z,21.27
2022-12-28T03:49:47.660Z,23.87
2022-12-28T03:52:15.756Z,24.17
2022-12-28T03:54:44.321Z,19.30
2022-12-28T03:57:12.329Z,24.00
2022-12-28T03:59:40.324Z,17.07
2022-12-28T04:02:08.491Z,19.63
2022-12-28T04:04:36.611Z,23.20
2022-12-28T04:07:05.995Z,23.07
2022-12-28T04:09:34.209Z,19.47
2022-12-28T04:12:02.223Z,19.70
2022-12-28T04:14:30.229Z,24.83
2022-12-28T04:16:58.251Z,25.40
2022-12-28T04:19:26.242Z,17.30
2022-12-28T04:21:54.257Z,22.57
2022-12-28T04:24:23.644Z,22.67
2022-12-28T04:26:51.685Z,24.20
2022-12-28T04:29:19.688Z,24.40
2022-12-28T04:31:48.078Z,25.80
2022-12-28T04:34:16.419Z,24.90
2022-12-28T04:36:44.462Z,26.27
2022-12-28T04:39:12.556Z,24.93
2022-12-28T04:41:41.990Z,24.17
2022-12-28T04:44:10.104Z,23.67
2022-12-28T04:46:38.139Z,22.90
2022-12-28T04:49:06.380Z,23.50
2022-12-28T04:51:35.322Z,33.77
2022-12-28T04:54:03.383Z,25.13
2022-12-28T04:56:31.669Z,23.47
2022-12-28T04:59:01.890Z,23.43
2022-12-28T05:01:30.021Z,25.67
2022-12-28T05:03:59.848Z,23.50
2022-12-28T05:06:29.411Z,22.57
2022-12-28T05:08:58.257Z,20.43
2022-12-28T05:11:28.739Z,23.43
2022-12-28T05:13:57.100Z,27.67
2022-12-28T05:16:28.124Z,24.57
2022-12-28T05:18:56.691Z,27.77
2022-12-28T05:21:26.000Z,20.17
2022-12-28T05:23:54.463Z,21.30
2022-12-28T05:26:24.823Z,25.40
2022-12-28T05:28:53.172Z,22.70
2022-12-28T05:31:23.578Z,21.80
2022-12-28T05:33:53.537Z,24.00
2022-12-28T05:36:23.916Z,22.07
2022-12-28T05:38:52.369Z,23.47
2022-12-28T05:41:22.419Z,22.67
2022-12-28T05:43:50.834Z,29.90
2022-12-28T05:46:20.731Z,22.97
2022-12-28T05:48:49.300Z,24.20
2022-12-28T05:51:20.689Z,20.40
2022-12-28T05:53:49.121Z,21.43
2022-12-28T05:56:18.967Z,22.53
2022-12-28T05:58:49.014Z,28.73
2022-12-28T06:01:19.074Z,27.43
2022-12-28T06:03:48.229Z,21.50
2022-12-28T06:06:18.800Z,22.57
2022-12-28T06:08:48.515Z,22.03
2022-12-28T06:11:18.570Z,24.80
2022-12-28T06:13:46.972Z,27.37
2022-12-28T06:16:17.164Z,24.20
2022-12-28T06:18:45.758Z,27.67
2022-12-28T06:21:15.163Z,22.73
2022-12-28T06:23:45.301Z,24.50
2022-12-28T06:26:15.275Z,27.07
2022-12-28T06:28:44.024Z,26.20
2022-12-28T06:31:13.975Z,26.93
2022-12-28T06:33:42.695Z,23.50
2022-12-28T06:36:19.577Z,26.93
2022-12-28T06:38:49.889Z,25.43
2022-12-28T06:41:19.489Z,24.00
2022-12-28T06:43:48.125Z,23.53
2022-12-28T06:46:17.459Z,24.70
2022-12-28T06:48:46.008Z,25.53
2022-12-28T06:51:15.963Z,25.73
2022-12-28T06:53:44.493Z,22.67
2022-12-28T06:56:15.842Z,27.60
2022-12-28T06:58:44.939Z,25.07
2022-12-28T07:01:15.555Z,23.90
2022-12-28T07:03:43.721Z,21.50
2022-12-28T07:06:12.809Z,22.00
2022-12-28T07:08:41.685Z,21.63
2022-12-28T07:11:11.450Z,23.63
2022-12-28T07:13:40.961Z,25.20
2022-12-28T07:16:12.527Z,22.20
2022-12-28T07:18:41.385Z,23.13
2022-12-28T07:21:12.311Z,21.53
2022-12-28T07:23:40.650Z,23.77
2022-12-28T07:26:10.829Z,22.27
2022-12-28T07:28:40.925Z,20.00
2022-12-28T07:31:10.064Z,23.53
2022-12-28T07:33:38.890Z,22.00
2022-12-28T07:36:09.372Z,18.87
2022-12-28T07:38:37.399Z,22.47
2022-12-28T07:41:07.422Z,23.00
2022-12-28T07:43:37.144Z,35.43
2022-12-28T07:46:09.125Z,18.17
2022-12-28T07:48:38.192Z,20.67
2022-12-28T07:51:11.580Z,17.53
2022-12-28T07:53:40.413Z,16.80
2022-12-28T07:56:09.537Z,15.30
2022-12-28T07:58:37.595Z,13.33
2022-12-28T08:01:08.547Z,16.20
2022-12-28T08:03:36.937Z,15.97
2022-12-28T08:06:07.317Z,14.83
2022-12-28T08:08:36.554Z,11.90
2022-12-28T08:11:05.688Z,12.73
2022-12-28T08:13:35.692Z,11.90
2022-12-28T08:16:04.224Z,12.77
2022-12-28T08:18:34.073Z,15.93
2022-12-28T08:21:03.106Z,12.17
2022-12-28T08:23:31.227Z,12.90
2022-12-28T08:26:05.580Z,13.63
2022-12-28T08:28:33.596Z,12.73
2022-12-28T08:31:07.372Z,13.60
2022-12-28T08:33:37.006Z,10.67
2022-12-28T08:36:05.864Z,12.13
2022-12-28T08:38:35.099Z,12.03
2022-12-28T08:41:05.369Z,11.73
2022-12-28T08:43:34.161Z,11.77
2022-12-28T08:46:03.787Z,10.97
2022-12-28T08:48:31.998Z,8.93
2022-12-28T08:51:04.807Z,12.80
2022-12-28T08:53:33.558Z,12.20
2022-12-28T08:56:06.897Z,11.90
2022-12-28T08:58:35.136Z,14.40
2022-12-28T09:01:08.757Z,9.13
2022-12-28T09:03:38.093Z,11.03
2022-12-28T09:06:09.861Z,12.20
2022-12-28T09:08:38.365Z,12.30
2022-12-28T09:11:08.459Z,12.63
2022-12-28T09:13:37.245Z,16.70
2022-12-28T09:16:07.917Z,9.87
2022-12-28T09:18:37.116Z,9.70
2022-12-28T09:21:13.245Z,11.40
2022-12-28T09:23:41.800Z,12.40
2022-12-28T09:26:12.584Z,10.40
2022-12-28T09:28:41.315Z,15.63
2022-12-28T09:31:10.106Z,11.47
2022-12-28T09:36:46.194Z,12.23
2022-12-28T09:39:17.620Z,13.77
2022-12-28T09:41:50.155Z,11.10
2022-12-28T09:44:46.889Z,13.13
2022-12-28T09:47:24.250Z,14.93
2022-12-28T09:50:04.607Z,9.60
2022-12-28T09:52:37.486Z,11.67
2022-12-28T09:55:11.677Z,9.83
2022-12-28T09:57:44.695Z,8.47
2022-12-28T10:00:19.381Z,10.57
2022-12-28T10:02:53.068Z,11.60
2022-12-28T10:05:22.144Z,12.57
2022-12-28T10:07:52.897Z,9.50
2022-12-28T10:10:23.188Z,10.53
2022-12-28T10:12:52.118Z,7.73
2022-12-28T10:15:20.959Z,7.93
2022-12-28T10:17:49.042Z,11.47
2022-12-28T10:20:20.792Z,8.67
2022-12-28T10:22:55.765Z,9.00
2022-12-28T10:25:26.053Z,8.80
2022-12-28T10:27:54.815Z,8.53
2022-12-28T10:30:27.199Z,8.87
2022-12-28T10:33:02.690Z,8.13
2022-12-28T10:35:36.368Z,13.83
2022-12-28T10:38:19.427Z,8.93
2022-12-28T10:40:59.158Z,11.07
2022-12-28T10:43:30.382Z,5.30
2022-12-28T10:46:00.237Z,6.10
2022-12-28T10:48:31.758Z,9.47
2022-12-28T10:51:03.109Z,8.93
2022-12-28T10:53:34.735Z,7.90
2022-12-28T10:56:05.914Z,6.10
2022-12-28T10:58:35.275Z,6.63
2022-12-28T11:01:07.668Z,7.20
2022-12-28T11:03:38.575Z,7.37
2022-12-28T11:06:15.091Z,7.87
2022-12-28T11:08:46.966Z,6.13
2022-12-28T11:11:19.891Z,6.40
2022-12-28T11:13:52.609Z,5.73
2022-12-28T11:16:21.255Z,10.07
2022-12-28T11:18:49.696Z,4.53
2022-12-28T11:21:21.048Z,9.47
2022-12-28T11:23:52.662Z,5.67
2022-12-28T11:26:21.930Z,10.50
2022-12-28T11:28:52.878Z,8.27
2022-12-28T11:31:26.897Z,6.63
2022-12-28T11:33:58.454Z,9.83
2022-12-28T11:36:28.392Z,4.87
2022-12-28T11:38:58.553Z,6.27
2022-12-28T11:41:56.266Z,5.00
2022-12-28T11:44:54.023Z,7.50
2022-12-28T11:47:32.987Z,5.63
2022-12-28T11:50:39.287Z,6.70
2022-12-28T11:53:23.367Z,5.47
2022-12-28T11:56:05.003Z,9.00
2022-12-28T11:58:48.480Z,9.70
2022-12-28T12:01:42.713Z,7.43
2022-12-28T12:04:31.267Z,15.47
2022-12-28T12:07:32.084Z,6.23
2022-12-28T12:10:37.176Z,5.17
2022-12-28T12:13:42.535Z,6.33
2022-12-28T12:16:21.982Z,7.80
2022-12-28T12:18:52.964Z,5.63
2022-12-28T12:21:34.338Z,6.10
2022-12-28T12:24:18.525Z,6.20
2022-12-28T12:26:51.351Z,6.97
2022-12-28T12:29:24.910Z,6.83
2022-12-28T12:32:00.586Z,7.93
2022-12-28T12:34:41.357Z,6.03
2022-12-28T12:37:37.981Z,4.90
2022-12-28T12:40:41.902Z,7.87
2022-12-28T12:43:38.959Z,6.67
2022-12-28T12:46:27.167Z,8.23
2022-12-28T12:49:30.442Z,8.07
2022-12-28T12:52:06.327Z,5.93
2022-12-28T12:54:45.243Z,9.87
2022-12-28T12:57:18.424Z,6.50
2022-12-28T13:00:06.210Z,7.30
2022-12-28T13:02:58.314Z,5.77
2022-12-28T13:05:29.438Z,4.07
2022-12-28T13:07:59.208Z,8.47
2022-12-28T13:10:32.704Z,5.60
2022-12-28T13:13:03.268Z,4.07
2022-12-28T13:15:32.316Z,7.37
2022-12-28T13:18:34.457Z,5.07
2022-12-28T13:20:56.878Z,4.20
2022-12-28T13:23:25.681Z,5.93
2022-12-28T13:25:56.137Z,4.07
2022-12-28T13:28:28.571Z,5.53
2022-12-28T13:31:07.562Z,5.87
2022-12-28T13:33:37.028Z,4.73
2022-12-28T13:36:14.922Z,6.67
2022-12-28T13:38:42.972Z,9.27
2022-12-28T13:41:22.309Z,4.23
2022-12-28T13:44:21.538Z,4.90
2022-12-28T13:46:54.908Z,7.40
2022-12-28T13:49:26.489Z,4.40
2022-12-28T13:51:54.725Z,5.63
2022-12-28T13:54:25.128Z,6.13
2022-12-28T13:57:08.625Z,5.30
2022-12-28T13:59:44.826Z,5.57
2022-12-28T14:02:18.163Z,5.57
2022-12-28T14:04:52.672Z,7.40
2022-12-28T14:07:25.337Z,6.27
2022-12-28T14:09:54.739Z,4.30
2022-12-28T14:12:23.398Z,5.30
2022-12-28T14:14:52.681Z,8.37
2022-12-28T14:17:21.803Z,5.93
2022-12-28T14:19:52.820Z,6.23
2022-12-28T14:22:39.846Z,7.10
2022-12-28T14:25:09.886Z,5.17
2022-12-28T14:27:41.071Z,8.37
2022-12-28T14:30:21.930Z,10.63
2022-12-28T14:32:50.279Z,5.37
2022-12-28T14:35:23.474Z,10.23
2022-12-28T14:37:55.224Z,7.63
2022-12-28T14:40:29.235Z,7.73
2022-12-28T14:42:58.720Z,4.90
2022-12-28T14:46:06.943Z,8.37
2022-12-28T14:48:37.791Z,4.20
2022-12-28T14:51:25.907Z,5.80
2022-12-28T14:54:20.744Z,4.30
2022-12-28T14:56:53.272Z,4.77
2022-12-28T14:59:26.174Z,6.70
2022-12-28T15:01:54.465Z,3.80
2022-12-28T15:04:36.169Z,5.47
2022-12-28T15:07:06.975Z,4.50
2022-12-28T15:09:35.114Z,6.10
2022-12-28T15:12:13.768Z,5.60
2022-12-28T15:14:42.320Z,4.60
2022-12-28T15:17:11.516Z,7.00
2022-12-28T15:19:40.115Z,7.93
2022-12-28T15:22:09.566Z,5.57
2022-12-28T15:24:38.807Z,4.27
2022-12-28T15:27:06.942Z,3.40
2022-12-28T15:32:22.981Z,10.73
2022-12-28T15:34:51.017Z,2.63
2022-12-28T15:37:20.415Z,7.10
2022-12-28T15:39:49.543Z,4.17
2022-12-28T15:42:17.645Z,6.00
2022-12-28T15:44:46.306Z,6.60
2022-12-28T15:47:14.395Z,5.83
2022-12-28T15:49:42.425Z,4.63
2022-12-28T15:52:10.478Z,6.80
2022-12-28T15:54:45.313Z,5.10
2022-12-28T15:57:15.831Z,6.13
2022-12-28T15:59:43.953Z,7.53
2022-12-28T16:02:12.570Z,3.10
2022-12-28T16:04:41.061Z,6.90
2022-12-28T16:07:09.073Z,4.23
2022-12-28T16:09:37.098Z,3.87
2022-12-28T16:12:06.899Z,2.63
2022-12-28T16:14:34.933Z,3.27
2022-12-28T16:17:02.929Z,4.57
2022-12-28T16:19:30.977Z,3.50
2022-12-28T16:21:58.968Z,6.13
2022-12-28T16:24:29.039Z,5.87
2022-12-28T16:26:57.226Z,4.17
2022-12-28T16:29:26.648Z,3.67
2022-12-28T16:31:55.389Z,6.17
2022-12-28T16:34:23.825Z,3.57
2022-12-28T16:36:56.885Z,5.13
2022-12-28T16:39:25.241Z,3.30
2022-12-28T16:41:54.883Z,5.50
2022-12-28T16:44:26.942Z,6.30
2022-12-28T16:46:58.275Z,4.27
2022-12-28T16:49:27.123Z,5.53
2022-12-28T16:51:55.149Z,8.10
2022-12-28T16:54:24.929Z,5.63
2022-12-28T16:56:53.957Z,7.37
2022-12-28T16:59:24.554Z,4.90
2022-12-28T17:01:54.911Z,9.07
2022-12-28T17:04:23.854Z,4.00
2022-12-28T17:06:52.826Z,5.50
2022-12-28T17:09:21.860Z,3.93
2022-12-28T17:11:51.019Z,5.73
2022-12-28T17:17:08.837Z,3.60
2022-12-28T17:19:36.975Z,5.00
2022-12-28T17:22:05.569Z,5.87
2022-12-28T17:24:33.708Z,5.77
2022-12-28T17:27:07.228Z,17.27
2022-12-28T17:29:35.952Z,8.70
2022-12-28T17:32:04.350Z,7.40
2022-12-28T17:34:34.106Z,8.97
2022-12-28T17:37:02.124Z,7.77
2022-12-28T17:39:34.576Z,4.40
2022-12-28T17:42:06.320Z,4.07
2022-12-28T17:44:34.479Z,8.73
2022-12-28T17:47:02.532Z,4.23
2022-12-28T17:49:30.580Z,12.63
2022-12-28T17:51:59.995Z,41.00
2022-12-28T17:54:28.030Z,13.00
2022-12-28T17:56:56.137Z,10.87
2022-12-28T17:59:24.205Z,5.50
2022-12-28T18:01:53.656Z,6.93
2022-12-28T18:04:21.857Z,3.73
2022-12-28T18:06:49.891Z,5.40
2022-12-28T18:09:25.552Z,3.77
2022-12-28T18:11:55.601Z,4.83
2022-12-28T18:14:23.668Z,5.57
2022-12-28T18:16:51.738Z,3.90
2022-12-28T18:19:19.817Z,8.50
2022-12-28T18:21:48.991Z,3.43
2022-12-28T18:24:20.848Z,6.77
2022-12-28T18:26:50.561Z,5.23
2022-12-28T18:29:18.606Z,7.17
2022-12-28T18:31:46.754Z,4.30
2022-12-28T18:34:15.540Z,4.77
2022-12-28T18:36:43.602Z,4.43
2022-12-28T18:39:11.708Z,3.57
2022-12-28T18:41:39.866Z,4.20
2022-12-28T18:44:10.398Z,4.73
2022-12-28T18:46:38.509Z,4.40
2022-12-28T18:49:06.807Z,4.37
2022-12-28T18:51:34.841Z,5.13
2022-12-28T18:54:02.863Z,4.30
2022-12-28T18:56:30.977Z,4.67
2022-12-28T18:58:59.072Z,4.47
2022-12-28T19:04:18.920Z,5.57
2022-12-28T19:06:47.852Z,4.70
2022-12-28T19:09:16.033Z,3.30
2022-12-28T19:11:45.200Z,5.30
2022-12-28T19:14:15.654Z,3.67
2022-12-28T19:16:45.254Z,5.03
2022-12-28T19:19:13.712Z,5.77
2022-12-28T19:21:43.344Z,3.63
2022-12-28T19:24:14.509Z,5.90
2022-12-28T19:26:42.567Z,5.80
2022-12-28T19:29:12.172Z,5.30
2022-12-28T19:31:40.353Z,3.33
2022-12-28T19:34:09.965Z,5.87
2022-12-28T19:36:38.062Z,4.00
2022-12-28T19:39:06.244Z,6.27
2022-12-28T19:41:35.662Z,5.07
2022-12-28T19:44:03.739Z,4.03
2022-12-28T19:46:32.399Z,8.53
2022-12-28T19:49:01.438Z,4.57
2022-12-28T19:51:32.590Z,3.87
2022-12-28T19:54:02.729Z,5.60
2022-12-28T19:56:31.133Z,4.37
2022-12-28T19:59:06.191Z,5.27
2022-12-28T20:01:36.259Z,3.80
2022-12-28T20:04:12.313Z,4.43
2022-12-28T20:06:44.339Z,4.40
2022-12-28T20:09:13.224Z,5.87
2022-12-28T20:11:41.768Z,6.83
2022-12-28T20:14:12.581Z,3.83
2022-12-28T20:16:41.922Z,3.60
2022-12-28T20:19:11.912Z,5.87
2022-12-28T20:21:42.557Z,10.50
2022-12-28T20:24:12.650Z,3.80
2022-12-28T20:26:40.760Z,3.30
2022-12-28T20:29:09.071Z,3.77
2022-12-28T20:31:37.167Z,4.77
2022-12-28T20:34:05.741Z,4.23
2022-12-28T20:36:34.350Z,3.67
2022-12-28T20:39:04.538Z,4.47
2022-12-28T20:41:56.813Z,3.60
2022-12-28T20:44:27.155Z,4.80
2022-12-28T20:46:56.019Z,6.47
2022-12-28T20:49:24.461Z,6.83
2022-12-28T20:51:53.075Z,4.60
2022-12-28T20:54:22.988Z,7.63
2022-12-28T20:56:55.261Z,3.60
2022-12-28T20:59:25.657Z,3.90
2022-12-28T21:01:54.317Z,3.60
2022-12-28T21:04:24.491Z,7.03
2022-12-28T21:06:52.977Z,3.20
2022-12-28T21:09:23.026Z,16.80
2022-12-28T21:11:51.247Z,4.20
2022-12-28T21:14:19.479Z,3.70
2022-12-28T21:16:47.564Z,4.90
2022-12-28T21:19:15.641Z,4.87
2022-12-28T21:21:43.681Z,4.57
2022-12-28T21:24:11.775Z,6.03
2022-12-28T21:26:41.404Z,3.83
2022-12-28T21:29:09.596Z,4.27
2022-12-28T21:31:37.695Z,5.67
2022-12-28T21:34:05.749Z,8.77
2022-12-28T21:36:33.825Z,5.07
2022-12-28T21:39:01.857Z,7.27
2022-12-28T21:41:47.477Z,4.03
2022-12-28T21:44:19.876Z,5.40
2022-12-28T21:46:49.824Z,7.23
2022-12-28T21:49:17.910Z,5.87
2022-12-28T21:51:46.000Z,4.30
2022-12-28T21:54:16.143Z,5.97
2022-12-28T21:56:45.846Z,4.10
2022-12-28T21:59:16.097Z,5.67
2022-12-28T22:02:02.055Z,9.27
2022-12-28T22:04:47.952Z,4.20
2022-12-28T22:07:19.071Z,3.80
2022-12-28T22:10:05.175Z,8.23
2022-12-28T22:12:37.194Z,5.07
2022-12-28T22:15:27.597Z,6.23
2022-12-28T22:17:56.714Z,4.83
2022-12-28T22:20:25.753Z,4.00
2022-12-28T22:22:56.450Z,6.17
2022-12-28T22:25:25.455Z,5.60
2022-12-28T22:27:53.645Z,5.83
2022-12-28T22:30:23.455Z,4.80
2022-12-28T22:32:51.595Z,5.97
2022-12-28T22:35:19.910Z,6.83
2022-12-28T22:37:47.954Z,5.83
2022-12-28T22:40:16.078Z,5.97
2022-12-28T22:42:45.329Z,5.67
2022-12-28T22:45:15.111Z,7.10
2022-12-28T22:47:46.329Z,6.57
2022-12-28T22:50:16.705Z,7.37
2022-12-28T22:52:47.875Z,8.20
2022-12-28T22:55:15.952Z,7.80
2022-12-28T22:57:44.097Z,3.73
2022-12-28T23:00:19.063Z,6.20
2022-12-28T23:02:48.619Z,4.13
2022-12-28T23:05:17.067Z,5.27
2022-12-28T23:07:45.163Z,5.10
2022-12-28T23:10:13.227Z,5.33
2022-12-28T23:12:41.433Z,4.27
2022-12-28T23:15:18.559Z,6.33
2022-12-28T23:17:49.458Z,6.77
2022-12-28T23:20:35.768Z,5.17
2022-12-28T23:23:21.197Z,8.77
2022-12-28T23:26:06.831Z,4.67
2022-12-28T23:28:36.918Z,4.63
2022-12-28T23:31:05.352Z,11.80
2022-12-28T23:33:36.690Z,6.80
2022-12-28T23:36:05.941Z,5.43
2022-12-28T23:38:34.410Z,6.40
2022-12-28T23:41:23.695Z,4.70
2022-12-28T23:43:51.765Z,8.13
2022-12-28T23:46:19.885Z,8.03
2022-12-28T23:48:49.786Z,5.60
2022-12-28T23:51:18.064Z,6.70
2022-12-28T23:53:46.320Z,5.17
2022-12-28T23:56:14.429Z,7.97
2022-12-28T23:58:42.475Z,8.03
